Romance, Arkansas
Current Conditions -  °F | °C
As of 6:56 AM on Friday 31 Oct 2014 (Local Time) from KSRC Reporting Station
Clear Clear  
Wind Chill: 52°   Ceiling: Unl
Heat Index: 52°   Visibility: 10mi
Dew Point: 44°   Wind: 7mph
Humidity: 74%   Direction: 330°NNW
Pressure: 30.12"   Gusts: NA
Location:  35.24°N, 92.05°W
Report Text: KSRC 311156Z AUTO 33006KT 10SM CLR 11/07 A3012 RMK AO2 SLP206 T01110067 10133 20106 53023 TSNO
Loading
Personal Weather Stations






























Interactive Weather Map
Tropical Storm Tracking
New forecast layout! Learn more

10-Day Weather Forecast

Advertisements
Track Severe Weather on mobile